createdAt,value
2018-12-10T00:01:32.291Z,57.50
2018-12-10T00:03:59.221Z,57.40
2018-12-10T00:06:26.180Z,57.30
2018-12-10T00:08:53.124Z,57.30
2018-12-10T00:11:20.040Z,57.30
2018-12-10T00:13:47.030Z,57.40
2018-12-10T00:16:13.944Z,57.40
2018-12-10T00:18:40.856Z,57.40
2018-12-10T00:21:07.852Z,57.50
2018-12-10T00:23:34.776Z,57.50
2018-12-10T00:26:01.743Z,57.50
2018-12-10T00:28:28.688Z,57.70
2018-12-10T00:30:55.643Z,57.70
2018-12-10T00:33:22.590Z,57.70
2018-12-10T00:35:49.544Z,57.60
2018-12-10T00:38:16.477Z,57.50
2018-12-10T00:40:43.420Z,57.40
2018-12-10T00:43:10.332Z,57.20
2018-12-10T00:45:37.309Z,57.20
2018-12-10T00:48:04.225Z,57.10
2018-12-10T00:50:31.713Z,57.10
2018-12-10T00:52:58.662Z,57.10
2018-12-10T00:55:25.707Z,57.10
2018-12-10T00:57:52.648Z,57.10
2018-12-10T01:00:19.600Z,57.10
2018-12-10T01:02:46.542Z,57.10
2018-12-10T01:05:13.488Z,57.70
2018-12-10T01:07:40.404Z,57.10
2018-12-10T01:10:07.319Z,57.00
2018-12-10T01:12:34.241Z,57.20
2018-12-10T01:15:01.160Z,57.10
2018-12-10T01:17:28.169Z,57.10
2018-12-10T01:19:55.085Z,57.20
2018-12-10T01:22:22.009Z,57.40
2018-12-10T01:24:48.944Z,57.40
2018-12-10T01:27:15.864Z,57.20
2018-12-10T01:29:42.836Z,57.20
2018-12-10T01:32:09.755Z,57.10
2018-12-10T01:34:36.672Z,56.90
2018-12-10T01:37:03.603Z,56.60
2018-12-10T01:39:30.521Z,56.50
2018-12-10T01:41:57.528Z,56.50
2018-12-10T01:44:24.448Z,56.70
2018-12-10T01:46:51.384Z,56.50
2018-12-10T01:49:18.297Z,56.50
2018-12-10T01:51:45.219Z,56.50
2018-12-10T01:54:12.137Z,56.50
2018-12-10T01:56:39.052Z,56.50
2018-12-10T01:59:06.030Z,56.50
2018-12-10T02:01:32.980Z,56.50
2018-12-10T02:03:59.932Z,56.50
2018-12-10T02:06:26.847Z,56.60
2018-12-10T02:08:53.853Z,56.60
2018-12-10T02:11:20.772Z,56.60
2018-12-10T02:13:47.688Z,56.70
2018-12-10T02:16:14.609Z,57.20
2018-12-10T02:18:41.524Z,56.90
2018-12-10T02:21:08.444Z,57.00
2018-12-10T02:23:35.373Z,56.80
2018-12-10T02:26:02.289Z,56.60
2018-12-10T02:28:35.002Z,56.50
2018-12-10T02:31:01.921Z,56.50
2018-12-10T02:33:28.849Z,56.50
2018-12-10T02:35:55.767Z,56.50
2018-12-10T02:38:22.688Z,56.50
2018-12-10T02:40:49.606Z,56.50
2018-12-10T02:43:16.524Z,56.50
2018-12-10T02:45:43.448Z,56.40
2018-12-10T02:48:10.375Z,56.50
2018-12-10T02:50:37.288Z,56.50
2018-12-10T02:53:04.209Z,56.70
2018-12-10T02:55:31.180Z,56.50
2018-12-10T02:57:58.321Z,56.50
2018-12-10T03:00:25.235Z,56.50
2018-12-10T03:02:52.158Z,56.40
2018-12-10T03:05:19.078Z,56.40
2018-12-10T03:07:45.995Z,56.50
2018-12-10T03:10:12.914Z,56.50
2018-12-10T03:12:39.842Z,56.50
2018-12-10T03:15:06.766Z,56.50
2018-12-10T03:17:33.685Z,56.50
2018-12-10T03:20:00.609Z,56.60
2018-12-10T03:22:27.529Z,56.50
2018-12-10T03:24:54.457Z,57.10
2018-12-10T03:27:21.465Z,56.50
2018-12-10T03:29:48.389Z,56.50
2018-12-10T03:32:15.321Z,56.50
2018-12-10T03:34:42.251Z,56.50
2018-12-10T03:37:09.166Z,56.50
2018-12-10T03:39:36.638Z,56.40
2018-12-10T03:42:03.657Z,56.60
2018-12-10T03:44:30.568Z,56.50
2018-12-10T03:46:57.492Z,56.50
2018-12-10T03:49:24.414Z,56.40
2018-12-10T03:51:51.338Z,56.40
2018-12-10T03:54:18.260Z,56.40
2018-12-10T03:56:45.190Z,56.30
2018-12-10T03:59:12.108Z,56.20
2018-12-10T04:01:39.029Z,56.20
2018-12-10T04:04:05.984Z,56.90
2018-12-10T04:06:33.001Z,56.50
2018-12-10T04:08:59.940Z,56.50
2018-12-10T04:11:26.857Z,56.50
2018-12-10T04:13:53.772Z,56.40
2018-12-10T04:16:20.697Z,56.10
2018-12-10T04:18:47.613Z,55.90
2018-12-10T04:21:14.557Z,56.10
2018-12-10T04:23:41.453Z,56.80
2018-12-10T04:26:08.379Z,56.10
2018-12-10T04:28:35.310Z,56.10
2018-12-10T04:31:02.233Z,56.00
2018-12-10T04:33:29.189Z,56.00
2018-12-10T04:35:56.118Z,56.00
2018-12-10T04:38:23.173Z,56.00
2018-12-10T04:40:50.224Z,56.00
2018-12-10T04:43:17.136Z,56.00
2018-12-10T04:45:44.121Z,55.90
2018-12-10T04:48:11.049Z,55.90
2018-12-10T04:50:37.974Z,56.00
2018-12-10T04:53:04.894Z,56.00
2018-12-10T04:55:31.907Z,56.20
2018-12-10T04:57:58.837Z,56.30
2018-12-10T05:00:25.796Z,56.40
2018-12-10T05:02:52.716Z,56.20
2018-12-10T05:05:19.672Z,56.00
2018-12-10T05:07:46.605Z,55.80
2018-12-10T05:10:13.528Z,55.90
2018-12-10T05:12:40.525Z,55.70
2018-12-10T05:15:07.448Z,55.70
2018-12-10T05:17:34.407Z,55.70
2018-12-10T05:20:01.320Z,55.70
2018-12-10T05:22:28.261Z,55.70
2018-12-10T05:24:55.236Z,55.60
2018-12-10T05:27:22.165Z,55.60
2018-12-10T05:29:49.136Z,55.60
2018-12-10T05:32:16.076Z,55.60
2018-12-10T05:34:42.999Z,55.60
2018-12-10T05:37:09.926Z,55.60
2018-12-10T05:39:38.566Z,55.60
2018-12-10T05:42:05.813Z,55.60
2018-12-10T05:44:32.733Z,55.60
2018-12-10T05:46:59.705Z,55.90
2018-12-10T05:49:26.643Z,55.90
2018-12-10T05:51:53.557Z,56.00
2018-12-10T05:54:20.644Z,55.70
2018-12-10T05:56:47.555Z,55.70
2018-12-10T05:59:14.549Z,55.60
2018-12-10T06:01:41.486Z,55.70
2018-12-10T06:04:08.436Z,56.10
2018-12-10T06:06:35.373Z,55.50
2018-12-10T06:09:02.311Z,55.40
2018-12-10T06:11:29.275Z,55.20
2018-12-10T06:13:56.192Z,55.20
2018-12-10T06:16:23.157Z,55.10
2018-12-10T06:18:50.081Z,55.10
2018-12-10T06:21:16.997Z,55.10
2018-12-10T06:23:43.908Z,54.90
2018-12-10T06:26:10.932Z,54.90
2018-12-10T06:28:37.884Z,55.30
2018-12-10T06:31:04.818Z,55.00
2018-12-10T06:33:31.738Z,55.10
2018-12-10T06:35:58.828Z,55.30
2018-12-10T06:38:25.760Z,55.50
2018-12-10T06:40:52.712Z,55.50
2018-12-10T06:43:19.664Z,55.60
2018-12-10T06:45:46.576Z,55.50
2018-12-10T06:48:13.548Z,55.60
2018-12-10T06:50:40.505Z,55.60
2018-12-10T06:53:07.444Z,55.40
2018-12-10T06:55:34.398Z,55.30
2018-12-10T06:58:01.335Z,55.20
2018-12-10T07:00:28.280Z,55.10
2018-12-10T07:02:55.225Z,55.00
2018-12-10T07:05:22.157Z,55.00
2018-12-10T07:07:49.076Z,55.00
2018-12-10T07:10:15.989Z,54.90
2018-12-10T07:12:42.916Z,55.10
2018-12-10T07:15:09.837Z,55.50
2018-12-10T07:17:36.757Z,55.30
2018-12-10T07:20:04.300Z,55.00
2018-12-10T07:22:31.221Z,54.90
2018-12-10T07:24:58.145Z,54.90
2018-12-10T07:27:25.077Z,54.90
2018-12-10T07:29:52.097Z,54.80
2018-12-10T07:32:19.020Z,55.00
2018-12-10T07:34:45.940Z,55.10
2018-12-10T07:37:12.869Z,55.30
2018-12-10T07:39:39.788Z,55.20
2018-12-10T07:42:06.713Z,55.10
2018-12-10T07:44:33.624Z,55.10
2018-12-10T07:47:00.544Z,55.10
2018-12-10T07:49:27.465Z,55.10
2018-12-10T07:51:54.383Z,55.10
2018-12-10T07:54:21.392Z,55.10
2018-12-10T07:56:48.313Z,54.90
2018-12-10T07:59:15.228Z,54.80
2018-12-10T08:01:42.187Z,54.70
2018-12-10T08:04:09.167Z,54.60
2018-12-10T08:06:36.112Z,54.70
2018-12-10T08:09:03.896Z,54.70
2018-12-10T08:11:30.820Z,54.70
2018-12-10T08:13:57.737Z,54.70
2018-12-10T08:16:24.653Z,54.70
2018-12-10T08:18:51.577Z,54.80
2018-12-10T08:21:18.497Z,55.20
2018-12-10T08:23:45.409Z,55.10
2018-12-10T08:26:12.349Z,55.20
2018-12-10T08:28:39.273Z,55.40
2018-12-10T08:31:06.192Z,55.40
2018-12-10T08:33:33.112Z,55.10
2018-12-10T08:36:00.033Z,55.10
2018-12-10T08:38:26.952Z,55.00
2018-12-10T08:40:53.873Z,54.80
2018-12-10T08:43:20.805Z,55.00
2018-12-10T08:45:47.720Z,55.00
2018-12-10T08:48:14.656Z,54.80
2018-12-10T08:50:41.589Z,54.80
2018-12-10T08:53:08.516Z,54.70
2018-12-10T08:55:35.438Z,54.70
2018-12-10T08:58:02.376Z,54.70
2018-12-10T09:00:29.305Z,55.30
2018-12-10T09:02:56.225Z,54.50
2018-12-10T09:05:23.144Z,54.70
2018-12-10T09:07:50.066Z,54.50
2018-12-10T09:10:17.074Z,54.50
2018-12-10T09:12:47.138Z,54.60
2018-12-10T09:15:12.918Z,54.50
2018-12-10T09:17:39.844Z,54.70
2018-12-10T09:20:06.761Z,54.70
2018-12-10T09:22:33.693Z,54.60
2018-12-10T09:25:00.705Z,54.50
2018-12-10T09:27:27.627Z,54.50
2018-12-10T09:29:54.557Z,55.10
2018-12-10T09:32:21.477Z,54.10
2018-12-10T09:34:48.441Z,54.20
2018-12-10T09:37:15.363Z,54.30
2018-12-10T09:39:42.288Z,54.40
2018-12-10T09:42:09.204Z,54.40
2018-12-10T09:44:36.128Z,54.40
2018-12-10T09:47:03.043Z,54.50
2018-12-10T09:49:29.972Z,54.50
2018-12-10T09:51:56.889Z,54.70
2018-12-10T09:54:23.809Z,54.70
2018-12-10T09:56:50.737Z,54.80
2018-12-10T09:59:17.678Z,54.70
2018-12-10T10:01:44.596Z,54.50
2018-12-10T10:04:11.516Z,54.50
2018-12-10T10:06:38.441Z,54.80
2018-12-10T10:09:05.364Z,55.10
2018-12-10T10:11:32.294Z,55.10
2018-12-10T10:13:59.218Z,55.10
2018-12-10T10:16:26.149Z,55.10
2018-12-10T10:18:53.075Z,55.10
2018-12-10T10:21:19.991Z,55.10
2018-12-10T10:23:47.156Z,55.10
2018-12-10T10:26:14.229Z,55.00
2018-12-10T10:28:41.154Z,55.10
2018-12-10T10:31:08.080Z,55.00
2018-12-10T10:33:35.005Z,55.10
2018-12-10T10:36:01.957Z,54.80
2018-12-10T10:38:28.874Z,54.80
2018-12-10T10:40:55.857Z,54.80
2018-12-10T10:43:22.769Z,54.70
2018-12-10T10:45:49.689Z,54.70
2018-12-10T10:48:16.609Z,54.70
2018-12-10T10:50:43.532Z,54.70
2018-12-10T10:53:10.458Z,54.80
2018-12-10T10:55:37.372Z,54.70
2018-12-10T10:58:04.295Z,54.70
2018-12-10T11:00:36.975Z,54.70
2018-12-10T11:03:03.892Z,54.90
2018-12-10T11:05:30.816Z,55.00
2018-12-10T11:07:57.736Z,55.00
2018-12-10T11:10:24.662Z,54.60
2018-12-10T11:12:51.580Z,54.50
2018-12-10T11:15:18.497Z,54.40
2018-12-10T11:17:45.416Z,55.10
2018-12-10T11:20:12.332Z,54.30
2018-12-10T11:22:40.437Z,54.40
2018-12-10T11:25:07.475Z,54.40
2018-12-10T11:27:36.134Z,54.40
2018-12-10T11:30:03.289Z,54.30
2018-12-10T11:32:30.240Z,54.10
2018-12-10T11:34:57.156Z,54.30
2018-12-10T11:37:24.091Z,54.40
2018-12-10T11:39:51.013Z,54.50
2018-12-10T11:42:17.936Z,54.50
2018-12-10T11:44:44.848Z,54.50
2018-12-10T11:47:13.198Z,54.50
2018-12-10T11:49:40.392Z,54.60
2018-12-10T11:52:07.316Z,54.70
2018-12-10T11:54:34.240Z,54.70
2018-12-10T11:57:01.158Z,54.80
2018-12-10T11:59:28.084Z,54.70
2018-12-10T12:01:55.042Z,54.60
2018-12-10T12:04:21.964Z,54.50
2018-12-10T12:06:48.888Z,54.50
2018-12-10T12:09:15.832Z,54.50
2018-12-10T12:11:42.738Z,54.40
2018-12-10T12:14:09.757Z,54.20
2018-12-10T12:16:36.662Z,54.20
2018-12-10T12:19:11.044Z,54.10
2018-12-10T12:21:32.500Z,54.10
2018-12-10T12:23:59.429Z,54.00
2018-12-10T12:26:26.339Z,54.00
2018-12-10T12:28:53.265Z,54.00
2018-12-10T12:31:20.179Z,54.00
2018-12-10T12:33:47.107Z,54.10
2018-12-10T12:36:14.028Z,54.00
2018-12-10T12:38:40.948Z,54.10
2018-12-10T12:41:07.867Z,54.30
2018-12-10T12:43:34.788Z,54.40
2018-12-10T12:46:01.712Z,54.20
2018-12-10T12:48:28.629Z,54.00
2018-12-10T12:50:55.560Z,54.50
2018-12-10T12:53:22.476Z,53.90
2018-12-10T12:55:49.421Z,54.00
2018-12-10T12:58:16.345Z,53.90
2018-12-10T13:00:43.279Z,54.00
2018-12-10T13:03:10.200Z,54.00
2018-12-10T13:05:37.140Z,54.20
2018-12-10T13:08:04.076Z,54.20
2018-12-10T13:10:31.019Z,54.10
2018-12-10T13:12:57.939Z,54.50
2018-12-10T13:15:24.861Z,54.40
2018-12-10T13:17:51.788Z,54.40
2018-12-10T13:20:18.708Z,54.10
2018-12-10T13:22:47.781Z,54.30
2018-12-10T13:25:14.546Z,54.20
2018-12-10T13:27:41.464Z,54.50
2018-12-10T13:30:08.389Z,54.60
2018-12-10T13:32:35.316Z,54.70
2018-12-10T13:35:02.237Z,54.70
2018-12-10T13:37:29.160Z,54.70
2018-12-10T13:39:56.105Z,54.70
2018-12-10T13:42:23.021Z,54.80
2018-12-10T13:44:49.940Z,54.70
2018-12-10T13:47:16.883Z,55.10
2018-12-10T13:49:43.813Z,54.80
2018-12-10T13:52:10.821Z,54.70
2018-12-10T13:54:37.792Z,54.90
2018-12-10T13:57:04.800Z,54.70
2018-12-10T13:59:31.724Z,54.70
2018-12-10T14:01:58.673Z,54.70
2018-12-10T14:04:25.716Z,54.60
2018-12-10T14:06:52.653Z,54.50
2018-12-10T14:09:19.572Z,54.70
2018-12-10T14:11:47.335Z,54.50
2018-12-10T14:14:14.430Z,54.50
2018-12-10T14:16:41.356Z,54.40
2018-12-10T14:19:08.276Z,54.50
2018-12-10T14:21:35.196Z,54.50
2018-12-10T14:24:02.142Z,54.70
2018-12-10T14:26:29.062Z,54.80
2018-12-10T14:28:55.983Z,54.90
2018-12-10T14:31:27.379Z,54.80
2018-12-10T14:33:51.825Z,55.10
2018-12-10T14:36:18.752Z,54.40
2018-12-10T14:38:45.667Z,54.20
2018-12-10T14:41:12.687Z,54.10
2018-12-10T14:43:39.603Z,53.60
2018-12-10T14:46:06.525Z,53.80
2018-12-10T14:48:33.446Z,53.50
2018-12-10T14:51:00.376Z,53.40
2018-12-10T14:53:27.301Z,53.20
2018-12-10T14:55:54.226Z,53.20
2018-12-10T14:58:21.184Z,53.20
2018-12-10T15:00:48.189Z,53.20
2018-12-10T15:03:15.102Z,53.40
2018-12-10T15:05:42.026Z,53.50
2018-12-10T15:08:08.944Z,53.50
2018-12-10T15:10:35.872Z,53.70
2018-12-10T15:13:02.788Z,54.00
2018-12-10T15:15:29.828Z,53.90
2018-12-10T15:17:56.745Z,54.50
2018-12-10T15:20:23.668Z,53.80
2018-12-10T15:22:50.609Z,53.70
2018-12-10T15:25:17.534Z,53.80
2018-12-10T15:27:44.452Z,53.70
2018-12-10T15:30:11.398Z,53.60
2018-12-10T15:32:38.326Z,53.70
2018-12-10T15:35:05.257Z,53.60
2018-12-10T15:37:32.184Z,53.50
2018-12-10T15:39:59.102Z,53.40
2018-12-10T15:42:26.030Z,53.50
2018-12-10T15:44:53.021Z,53.70
2018-12-10T15:47:19.950Z,53.60
2018-12-10T15:49:46.857Z,53.30
2018-12-10T15:52:13.780Z,53.30
2018-12-10T15:54:40.701Z,53.20
2018-12-10T15:57:07.618Z,53.50
2018-12-10T15:59:34.557Z,53.70
2018-12-10T16:02:01.486Z,54.30
2018-12-10T16:04:30.349Z,53.70
2018-12-10T16:06:58.295Z,53.40
2018-12-10T16:09:25.216Z,53.30
2018-12-10T16:11:52.145Z,53.20
2018-12-10T16:14:19.072Z,53.10
2018-12-10T16:16:45.988Z,53.10
2018-12-10T16:19:12.905Z,53.10
2018-12-10T16:21:39.836Z,53.10
2018-12-10T16:24:06.751Z,53.00
2018-12-10T16:26:33.671Z,53.00
2018-12-10T16:29:00.716Z,53.00
2018-12-10T16:31:27.636Z,53.00
2018-12-10T16:33:54.563Z,52.90
2018-12-10T16:36:21.481Z,53.10
2018-12-10T16:38:48.402Z,53.10
2018-12-10T16:41:15.325Z,53.10
2018-12-10T16:43:42.250Z,53.30
2018-12-10T16:46:09.198Z,53.70
2018-12-10T16:48:36.113Z,53.80
2018-12-10T16:51:03.037Z,53.90
2018-12-10T16:53:30.005Z,54.00
2018-12-10T16:55:56.928Z,54.00
2018-12-10T16:58:23.885Z,54.00
2018-12-10T17:00:50.817Z,53.80
2018-12-10T17:03:17.863Z,54.00
2018-12-10T17:05:44.789Z,53.60
2018-12-10T17:08:11.708Z,53.60
2018-12-10T17:10:38.620Z,53.50
2018-12-10T17:13:05.539Z,53.50
2018-12-10T17:15:32.469Z,53.40
2018-12-10T17:17:59.398Z,53.80
2018-12-10T17:20:27.059Z,53.70
2018-12-10T17:22:53.978Z,53.10
2018-12-10T17:25:20.897Z,53.20
2018-12-10T17:27:47.954Z,53.20
2018-12-10T17:30:14.911Z,53.30
2018-12-10T17:32:41.835Z,52.90
2018-12-10T17:35:08.768Z,53.40
2018-12-10T17:37:35.734Z,53.20
2018-12-10T17:40:02.660Z,53.80
2018-12-10T17:42:29.595Z,53.40
2018-12-10T17:44:56.526Z,53.50
2018-12-10T17:47:23.486Z,53.60
2018-12-10T17:49:50.645Z,53.50
2018-12-10T17:52:17.576Z,53.30
2018-12-10T17:54:44.541Z,53.40
2018-12-10T17:57:11.480Z,53.40
2018-12-10T17:59:38.494Z,53.50
2018-12-10T18:02:05.417Z,53.40
2018-12-10T18:04:32.338Z,53.20
2018-12-10T18:06:59.291Z,53.10
2018-12-10T18:09:26.253Z,52.90
2018-12-10T18:11:53.185Z,52.90
2018-12-10T18:14:20.108Z,52.90
2018-12-10T18:16:47.117Z,52.80
2018-12-10T18:19:14.068Z,52.80
2018-12-10T18:21:41.045Z,52.80
2018-12-10T18:24:07.963Z,52.80
2018-12-10T18:26:34.889Z,52.80
2018-12-10T18:29:01.839Z,53.40
2018-12-10T18:31:28.770Z,53.20
2018-12-10T18:33:55.763Z,53.30
2018-12-10T18:36:22.694Z,53.20
2018-12-10T18:38:49.627Z,53.20
2018-12-10T18:41:16.602Z,53.20
2018-12-10T18:43:43.549Z,53.20
2018-12-10T18:46:10.460Z,53.20
2018-12-10T18:48:37.401Z,53.20
2018-12-10T18:51:04.321Z,53.20
2018-12-10T18:53:31.281Z,52.90
2018-12-10T18:55:58.184Z,53.00
2018-12-10T18:58:25.108Z,53.00
2018-12-10T19:00:52.028Z,53.10
2018-12-10T19:03:18.954Z,53.10
2018-12-10T19:05:45.877Z,53.10
2018-12-10T19:08:12.801Z,53.20
2018-12-10T19:10:39.733Z,53.20
2018-12-10T19:13:06.660Z,53.00
2018-12-10T19:15:33.651Z,53.40
2018-12-10T19:18:00.706Z,53.50
2018-12-10T19:20:27.634Z,53.60
2018-12-10T19:22:54.545Z,53.40
2018-12-10T19:25:21.504Z,53.00
2018-12-10T19:27:48.425Z,53.00
2018-12-10T19:30:15.352Z,53.00
2018-12-10T21:18:24.172Z,53.90
2018-12-10T21:20:51.097Z,53.80
2018-12-10T21:23:18.062Z,53.40
2018-12-10T21:25:44.977Z,53.50
2018-12-10T21:28:11.948Z,53.20
2018-12-10T21:30:38.872Z,53.00
2018-12-10T21:33:05.799Z,53.10
2018-12-10T21:35:32.787Z,53.00
2018-12-10T21:37:59.732Z,53.00
2018-12-10T21:40:26.644Z,53.10
2018-12-10T21:42:53.781Z,53.20
2018-12-10T21:45:20.676Z,53.40
2018-12-10T21:47:47.600Z,53.40
2018-12-10T21:50:14.516Z,53.40
2018-12-10T21:52:41.436Z,53.50
2018-12-10T21:55:08.452Z,53.70
2018-12-10T21:57:35.397Z,54.00
2018-12-10T22:00:02.344Z,53.90
2018-12-10T22:02:29.260Z,53.90
2018-12-10T22:04:56.231Z,53.80
2018-12-10T22:07:23.145Z,53.90
2018-12-10T22:09:50.128Z,53.90
2018-12-10T22:12:17.057Z,53.90
2018-12-10T22:14:44.016Z,53.90
2018-12-10T22:17:10.939Z,53.90
2018-12-10T22:19:37.896Z,53.90
2018-12-10T22:22:04.855Z,53.80
2018-12-10T22:24:31.774Z,53.80
2018-12-10T22:26:58.753Z,53.80
2018-12-10T22:29:25.693Z,54.00
2018-12-10T22:31:52.641Z,53.90
2018-12-10T22:34:19.588Z,54.10
2018-12-10T22:36:46.511Z,54.10
2018-12-10T22:39:13.483Z,54.20
2018-12-10T22:41:40.429Z,54.20
2018-12-10T22:44:07.340Z,54.20
2018-12-10T22:46:34.328Z,54.20
2018-12-10T22:49:01.240Z,54.20
2018-12-10T22:51:28.216Z,54.20
2018-12-10T22:53:55.153Z,54.20
2018-12-10T22:56:22.101Z,54.10
2018-12-10T22:58:49.020Z,54.00
2018-12-10T23:01:15.993Z,54.50
2018-12-10T23:03:42.932Z,54.10
2018-12-10T23:06:09.884Z,54.10
2018-12-10T23:08:36.804Z,54.20
2018-12-10T23:11:04.196Z,54.10
2018-12-10T23:13:31.112Z,54.20
2018-12-10T23:15:58.027Z,54.20
2018-12-10T23:18:24.940Z,54.20
2018-12-10T23:20:51.973Z,54.30
2018-12-10T23:23:18.912Z,54.40
2018-12-10T23:25:45.836Z,54.30
2018-12-10T23:28:12.749Z,54.30
2018-12-10T23:30:39.668Z,54.30
2018-12-10T23:33:06.693Z,54.40
2018-12-10T23:35:33.636Z,54.30
2018-12-10T23:38:00.548Z,54.40
2018-12-10T23:40:27.531Z,54.30
2018-12-10T23:43:00.168Z,54.40
2018-12-10T23:45:27.152Z,54.30
2018-12-10T23:47:54.073Z,54.30
2018-12-10T23:50:21.056Z,54.30
2018-12-10T23:52:47.976Z,54.30
2018-12-10T23:55:14.893Z,54.30
2018-12-10T23:57:41.893Z,54.30
